createdAt,value
2018-12-05T00:00:13.955Z,16.90
2018-12-05T00:02:42.643Z,21.53
2018-12-05T00:05:11.432Z,15.90
2018-12-05T00:07:40.236Z,18.23
2018-12-05T00:10:08.997Z,16.87
2018-12-05T00:12:37.627Z,18.30
2018-12-05T00:15:06.487Z,15.67
2018-12-05T00:17:35.206Z,17.63
2018-12-05T00:20:04.362Z,19.40
2018-12-05T00:22:32.959Z,20.90
2018-12-05T00:25:01.581Z,19.73
2018-12-05T00:27:30.209Z,13.80
2018-12-05T00:29:58.902Z,16.70
2018-12-05T00:32:27.494Z,17.77
2018-12-05T00:34:56.263Z,18.13
2018-12-05T00:37:24.887Z,20.43
2018-12-05T00:39:53.461Z,17.57
2018-12-05T00:42:22.193Z,17.73
2018-12-05T00:44:50.876Z,15.00
2018-12-05T00:47:19.497Z,15.40
2018-12-05T00:49:48.141Z,18.00
2018-12-05T00:52:16.789Z,15.73
2018-12-05T00:54:45.943Z,12.97
2018-12-05T00:57:14.754Z,19.27
2018-12-05T00:59:43.427Z,14.10
2018-12-05T01:02:12.205Z,15.60
2018-12-05T01:04:40.838Z,16.50
2018-12-05T01:07:09.693Z,17.73
2018-12-05T01:09:40.695Z,18.13
2018-12-05T01:12:10.736Z,16.20
2018-12-05T01:14:39.367Z,18.70
2018-12-05T01:17:08.102Z,14.27
2018-12-05T01:19:36.689Z,14.00
2018-12-05T01:22:05.587Z,13.47
2018-12-05T01:24:34.186Z,18.50
2018-12-05T01:27:02.798Z,13.37
2018-12-05T01:29:31.391Z,17.20
2018-12-05T01:32:00.014Z,17.83
2018-12-05T01:34:28.631Z,15.60
2018-12-05T01:36:57.246Z,15.37
2018-12-05T01:39:25.906Z,10.80
2018-12-05T01:41:54.528Z,15.27
2018-12-05T01:44:23.188Z,13.93
2018-12-05T01:46:51.849Z,19.43
2018-12-05T01:49:20.479Z,12.23
2018-12-05T01:51:49.371Z,16.23
2018-12-05T01:54:17.996Z,19.67
2018-12-05T01:56:46.669Z,19.20
2018-12-05T01:59:15.443Z,20.97
2018-12-05T02:01:44.071Z,16.07
2018-12-05T02:04:12.807Z,14.97
2018-12-05T02:06:41.416Z,17.30
2018-12-05T02:09:10.008Z,18.27
2018-12-05T02:11:38.745Z,16.43
2018-12-05T02:14:07.419Z,12.30
2018-12-05T02:16:35.991Z,14.40
2018-12-05T02:19:05.089Z,11.23
2018-12-05T02:21:34.353Z,11.70
2018-12-05T02:24:03.083Z,12.80
2018-12-05T02:26:31.716Z,12.97
2018-12-05T02:29:00.341Z,14.27
2018-12-05T02:31:28.971Z,17.53
2018-12-05T02:33:57.612Z,13.30
2018-12-05T02:36:26.324Z,14.23
2018-12-05T02:38:54.961Z,11.20
2018-12-05T02:41:24.627Z,15.23
2018-12-05T02:43:53.271Z,14.07
2018-12-05T02:46:21.899Z,17.77
2018-12-05T02:48:50.568Z,17.47
2018-12-05T02:51:19.287Z,13.07
2018-12-05T02:53:47.940Z,13.57
2018-12-05T02:56:16.591Z,12.63
2018-12-05T02:58:45.217Z,14.07
2018-12-05T03:01:13.900Z,15.33
2018-12-05T03:03:42.693Z,13.20
2018-12-05T03:06:11.310Z,14.30
2018-12-05T03:08:39.957Z,12.73
2018-12-05T03:11:08.574Z,15.43
2018-12-05T03:13:37.280Z,14.70
2018-12-05T03:16:08.088Z,19.10
2018-12-05T03:18:36.676Z,17.43
2018-12-05T03:21:05.373Z,12.40
2018-12-05T03:23:33.993Z,12.80
2018-12-05T03:26:02.633Z,12.57
2018-12-05T03:28:31.296Z,15.57
2018-12-05T03:30:59.935Z,14.27
2018-12-05T03:33:28.678Z,15.40
2018-12-05T03:35:59.548Z,12.93
2018-12-05T03:38:31.614Z,13.03
2018-12-05T03:41:00.255Z,21.67
2018-12-05T03:43:28.931Z,17.13
2018-12-05T03:45:57.530Z,12.10
2018-12-05T03:48:26.199Z,16.33
2018-12-05T03:50:54.848Z,13.70
2018-12-05T03:53:23.514Z,12.70
2018-12-05T03:56:05.255Z,15.17
2018-12-05T03:58:34.028Z,16.63
2018-12-05T04:01:02.760Z,15.70
2018-12-05T04:03:31.503Z,15.10
2018-12-05T04:06:00.317Z,15.60
2018-12-05T04:08:29.010Z,17.00
2018-12-05T04:10:57.675Z,11.50
2018-12-05T04:13:26.381Z,13.90
2018-12-05T04:15:55.087Z,17.53
2018-12-05T04:18:23.745Z,13.90
2018-12-05T04:20:52.427Z,16.17
2018-12-05T04:23:21.031Z,17.47
2018-12-05T04:25:49.691Z,18.93
2018-12-05T04:28:18.375Z,22.03
2018-12-05T04:30:47.023Z,17.60
2018-12-05T04:33:15.673Z,20.87
2018-12-05T04:35:44.416Z,22.00
2018-12-05T04:38:12.999Z,22.00
2018-12-05T04:40:41.606Z,21.77
2018-12-05T04:43:10.262Z,20.80
2018-12-05T04:45:38.942Z,24.80
2018-12-05T04:48:07.589Z,22.43
2018-12-05T04:50:36.264Z,29.10
2018-12-05T04:53:05.054Z,25.10
2018-12-05T04:55:33.832Z,19.37
2018-12-05T04:58:02.574Z,23.73
2018-12-05T05:00:31.226Z,26.30
2018-12-05T05:02:59.920Z,22.63
2018-12-05T05:05:28.591Z,21.73
2018-12-05T05:07:57.270Z,18.60
2018-12-05T05:10:25.863Z,20.43
2018-12-05T05:12:54.589Z,22.20
2018-12-05T05:15:23.226Z,18.97
2018-12-05T05:17:51.829Z,16.10
2018-12-05T05:20:20.617Z,18.53
2018-12-05T05:22:49.243Z,26.83
2018-12-05T05:25:17.844Z,16.37
2018-12-05T05:27:46.457Z,20.67
2018-12-05T05:30:15.351Z,21.73
2018-12-05T05:32:46.158Z,17.83
2018-12-05T05:35:15.071Z,26.60
2018-12-05T05:37:43.672Z,30.07
2018-12-05T05:40:12.292Z,29.60
2018-12-05T05:42:40.956Z,25.97
2018-12-05T05:45:09.583Z,20.87
2018-12-05T05:47:38.261Z,21.67
2018-12-05T05:50:07.752Z,22.70
2018-12-05T05:52:36.464Z,21.00
2018-12-05T05:55:05.311Z,33.40
2018-12-05T05:57:33.911Z,24.73
2018-12-05T06:00:02.595Z,25.37
2018-12-05T06:02:31.229Z,25.67
2018-12-05T06:05:00.014Z,31.30
2018-12-05T06:07:28.792Z,24.93
2018-12-05T06:09:57.457Z,21.67
2018-12-05T06:12:26.128Z,23.80
2018-12-05T06:14:54.840Z,27.87
2018-12-05T06:17:23.475Z,28.40
2018-12-05T06:19:52.219Z,29.13
2018-12-05T06:22:20.840Z,24.40
2018-12-05T06:24:49.516Z,30.17
2018-12-05T06:27:18.204Z,33.73
2018-12-05T06:29:46.838Z,29.40
2018-12-05T06:32:15.544Z,25.37
2018-12-05T06:34:44.135Z,36.73
2018-12-05T06:37:12.746Z,30.27
2018-12-05T06:39:41.490Z,32.67
2018-12-05T06:42:10.132Z,38.57
2018-12-05T06:44:38.781Z,36.30
2018-12-05T06:47:07.500Z,32.57
2018-12-05T06:49:36.203Z,39.23
2018-12-05T06:52:04.803Z,41.37
2018-12-05T06:54:33.480Z,40.90
2018-12-05T06:57:02.266Z,37.37
2018-12-05T06:59:30.864Z,34.13
2018-12-05T07:01:59.508Z,36.37
2018-12-05T07:04:28.294Z,41.23
2018-12-05T07:06:56.969Z,33.17
2018-12-05T07:09:25.588Z,37.17
2018-12-05T07:11:54.206Z,42.10
2018-12-05T07:14:22.839Z,36.07
2018-12-05T07:16:51.717Z,33.43
2018-12-05T07:19:20.407Z,38.43
2018-12-05T07:21:49.111Z,42.30
2018-12-05T07:24:17.758Z,43.23
2018-12-05T07:26:46.404Z,38.03
2018-12-05T07:29:15.060Z,38.43
2018-12-05T07:31:43.756Z,33.10
2018-12-05T07:34:12.494Z,39.17
2018-12-05T07:36:41.119Z,39.47
2018-12-05T07:39:09.733Z,32.20
2018-12-05T07:41:38.352Z,43.23
2018-12-05T07:44:07.069Z,35.13
2018-12-05T07:46:36.554Z,31.93
2018-12-05T07:49:05.400Z,31.90
2018-12-05T07:51:34.043Z,30.27
2018-12-05T07:54:02.679Z,33.37
2018-12-05T07:56:31.476Z,35.67
2018-12-05T07:59:00.148Z,33.53
2018-12-05T08:01:28.798Z,27.80
2018-12-05T08:03:57.577Z,32.70
2018-12-05T08:06:26.373Z,40.63
2018-12-05T08:08:55.086Z,34.53
2018-12-05T08:11:23.818Z,33.70
2018-12-05T08:13:52.522Z,35.23
2018-12-05T08:16:21.220Z,33.97
2018-12-05T08:18:49.951Z,30.07
2018-12-05T08:21:18.527Z,28.97
2018-12-05T08:23:47.123Z,32.07
2018-12-05T08:26:15.761Z,34.70
2018-12-05T08:28:44.617Z,36.50
2018-12-05T08:31:13.224Z,27.90
2018-12-05T08:33:41.923Z,29.57
2018-12-05T08:36:10.564Z,33.33
2018-12-05T08:38:39.184Z,27.00
2018-12-05T08:41:07.848Z,22.63
2018-12-05T08:43:36.452Z,26.87
2018-12-05T08:46:05.106Z,26.97
2018-12-05T08:48:33.679Z,26.27
2018-12-05T08:51:02.379Z,23.10
2018-12-05T08:53:31.002Z,26.70
2018-12-05T08:55:59.668Z,23.50
2018-12-05T08:58:28.343Z,25.40
2018-12-05T09:00:56.983Z,29.33
2018-12-05T09:03:25.611Z,26.17
2018-12-05T09:05:54.362Z,30.67
2018-12-05T09:08:23.080Z,29.70
2018-12-05T09:10:51.847Z,23.10
2018-12-05T09:13:20.471Z,26.10
2018-12-05T09:15:49.140Z,25.77
2018-12-05T09:18:17.836Z,22.40
2018-12-05T09:20:46.448Z,27.83
2018-12-05T09:23:15.062Z,26.73
2018-12-05T09:25:43.669Z,26.50
2018-12-05T09:28:12.285Z,24.47
2018-12-05T09:30:40.927Z,28.77
2018-12-05T09:33:09.521Z,30.90
2018-12-05T09:35:38.142Z,27.00
2018-12-05T09:38:06.795Z,23.57
2018-12-05T09:40:35.394Z,25.20
2018-12-05T09:43:04.145Z,21.50
2018-12-05T09:45:32.805Z,26.53
2018-12-05T09:48:01.462Z,25.37
2018-12-05T09:50:30.109Z,26.43
2018-12-05T09:52:58.768Z,28.03
2018-12-05T09:55:27.496Z,23.80
2018-12-05T09:57:56.151Z,21.57
2018-12-05T10:00:24.772Z,22.67
2018-12-05T10:02:53.423Z,26.00
2018-12-05T10:05:22.038Z,21.53
2018-12-05T10:07:50.662Z,23.60
2018-12-05T10:10:19.607Z,22.87
2018-12-05T10:12:48.219Z,21.47
2018-12-05T10:15:16.873Z,21.47
2018-12-05T10:17:45.548Z,20.03
2018-12-05T10:20:14.171Z,26.20
2018-12-05T10:22:42.759Z,24.10
2018-12-05T10:25:11.342Z,18.90
2018-12-05T10:27:39.984Z,20.43
2018-12-05T10:30:09.653Z,20.07
2018-12-05T10:32:38.305Z,21.80
2018-12-05T10:35:07.042Z,24.73
2018-12-05T10:37:35.664Z,20.63
2018-12-05T10:40:04.810Z,18.30
2018-12-05T10:42:33.526Z,19.63
2018-12-05T10:45:02.149Z,25.00
2018-12-05T10:47:30.801Z,25.10
2018-12-05T10:49:59.532Z,17.70
2018-12-05T10:52:28.266Z,20.47
2018-12-05T10:54:56.852Z,20.40
2018-12-05T10:57:25.623Z,17.63
2018-12-05T10:59:54.260Z,17.73
2018-12-05T11:02:28.188Z,19.00
2018-12-05T11:05:02.129Z,20.03
2018-12-05T11:07:36.148Z,15.57
2018-12-05T11:10:10.231Z,20.37
2018-12-05T11:13:44.220Z,15.73
2018-12-05T11:16:18.168Z,19.77
2018-12-05T11:18:52.376Z,18.07
2018-12-05T11:21:26.115Z,17.37
2018-12-05T11:24:58.759Z,20.83
2018-12-05T11:27:27.668Z,16.30
2018-12-05T11:29:56.264Z,16.37
2018-12-05T11:32:24.927Z,10.43
2018-12-05T11:34:53.742Z,15.77
2018-12-05T11:37:22.362Z,13.63
2018-12-05T11:39:51.199Z,11.27
2018-12-05T11:42:19.773Z,17.83
2018-12-05T11:44:48.399Z,13.60
2018-12-05T11:47:17.050Z,15.60
2018-12-05T11:49:45.642Z,12.67
2018-12-05T11:52:14.256Z,13.27
2018-12-05T11:54:43.056Z,14.20
2018-12-05T11:57:11.668Z,14.03
2018-12-05T11:59:40.308Z,14.37
2018-12-05T12:02:08.914Z,16.57
2018-12-05T12:04:37.531Z,19.40
2018-12-05T12:07:06.157Z,11.10
2018-12-05T12:09:34.824Z,19.20
2018-12-05T12:12:03.456Z,14.50
2018-12-05T12:14:32.087Z,13.73
2018-12-05T12:17:00.669Z,15.53
2018-12-05T12:19:29.260Z,13.10
2018-12-05T12:21:58.000Z,16.93
2018-12-05T12:24:26.629Z,16.83
2018-12-05T12:26:55.276Z,14.03
2018-12-05T12:29:23.902Z,14.33
2018-12-05T12:31:52.593Z,12.40
2018-12-05T12:34:21.267Z,22.27
2018-12-05T12:36:49.884Z,13.97
2018-12-05T12:39:18.511Z,14.47
2018-12-05T12:41:47.171Z,11.87
2018-12-05T12:44:15.822Z,14.67
2018-12-05T12:46:44.438Z,14.93
2018-12-05T12:49:13.035Z,17.67
2018-12-05T12:51:41.684Z,16.53
2018-12-05T12:54:10.357Z,14.23
2018-12-05T12:56:38.963Z,12.90
2018-12-05T12:59:07.594Z,12.87
2018-12-05T13:01:36.244Z,13.47
2018-12-05T13:04:05.007Z,13.07
2018-12-05T13:06:33.586Z,14.93
2018-12-05T13:09:02.162Z,12.37
2018-12-05T13:11:30.759Z,13.43
2018-12-05T13:13:59.371Z,13.47
2018-12-05T13:16:28.181Z,14.17
2018-12-05T13:18:56.769Z,15.47
2018-12-05T13:21:25.335Z,19.03
2018-12-05T13:23:53.986Z,13.77
2018-12-05T13:26:22.640Z,14.90
2018-12-05T13:28:51.233Z,12.27
2018-12-05T13:31:19.800Z,13.30
2018-12-05T13:33:48.416Z,15.53
2018-12-05T13:36:17.096Z,13.90
2018-12-05T13:38:45.757Z,19.70
2018-12-05T13:41:14.397Z,16.10
2018-12-05T13:43:43.037Z,12.53
2018-12-05T13:46:11.701Z,18.07
2018-12-05T13:48:40.303Z,17.80
2018-12-05T13:51:08.947Z,17.23
2018-12-05T13:53:37.521Z,17.53
2018-12-05T13:56:06.233Z,15.60
2018-12-05T13:58:34.849Z,14.00
2018-12-05T14:01:03.492Z,14.23
2018-12-05T14:03:32.245Z,22.97
2018-12-05T14:06:00.902Z,20.40
2018-12-05T14:08:29.518Z,15.13
2018-12-05T14:10:58.113Z,20.20
2018-12-05T14:13:26.717Z,17.37
2018-12-05T14:15:55.312Z,18.30
2018-12-05T14:18:23.932Z,13.57
2018-12-05T14:20:52.510Z,13.83
2018-12-05T14:23:21.121Z,19.23
2018-12-05T14:25:49.847Z,15.77
2018-12-05T14:28:18.471Z,18.40
2018-12-05T14:30:47.120Z,18.40
2018-12-05T14:33:15.855Z,18.10
2018-12-05T14:35:44.468Z,13.00
2018-12-05T14:38:13.096Z,16.33
2018-12-05T14:40:41.739Z,16.40
2018-12-05T14:43:10.323Z,16.13
2018-12-05T14:45:39.116Z,14.83
2018-12-05T14:48:07.752Z,16.00
2018-12-05T14:50:36.424Z,20.40
2018-12-05T14:53:05.255Z,15.03
2018-12-05T14:55:33.933Z,20.73
2018-12-05T14:58:02.559Z,16.83
2018-12-05T15:00:31.270Z,21.50
2018-12-05T15:03:00.010Z,17.67
2018-12-05T15:05:28.640Z,16.30
2018-12-05T15:07:57.259Z,15.50
2018-12-05T15:10:25.933Z,17.17
2018-12-05T15:12:54.581Z,16.40
2018-12-05T15:15:23.172Z,14.07
2018-12-05T15:17:51.900Z,12.37
2018-12-05T15:20:20.619Z,21.40
2018-12-05T15:22:49.222Z,15.23
2018-12-05T15:25:17.823Z,14.90
2018-12-05T15:27:46.452Z,15.23
2018-12-05T15:30:15.031Z,15.63
2018-12-05T15:32:43.640Z,16.50
2018-12-05T15:35:12.272Z,20.50
2018-12-05T15:37:40.872Z,14.37
2018-12-05T15:40:09.650Z,17.73
2018-12-05T15:42:38.215Z,14.90
2018-12-05T15:45:07.605Z,12.57
2018-12-05T15:47:36.591Z,15.30
2018-12-05T15:50:07.174Z,15.47
2018-12-05T15:52:35.859Z,14.27
2018-12-05T15:55:05.036Z,16.63
2018-12-05T15:57:33.641Z,16.83
2018-12-05T16:00:02.417Z,18.47
2018-12-05T16:02:30.988Z,13.90
2018-12-05T16:04:59.608Z,14.20
2018-12-05T16:07:28.224Z,15.53
2018-12-05T16:09:56.845Z,19.93
2018-12-05T16:12:25.578Z,18.80
2018-12-05T16:14:54.188Z,15.57
2018-12-05T16:17:22.879Z,14.40
2018-12-05T16:19:51.527Z,16.00
2018-12-05T16:22:20.187Z,15.50
2018-12-05T16:24:48.784Z,20.13
2018-12-05T16:27:17.411Z,17.07
2018-12-05T16:29:46.256Z,13.80
2018-12-05T16:32:14.929Z,13.00
2018-12-05T16:34:43.557Z,16.43
2018-12-05T16:37:12.196Z,17.13
2018-12-05T16:39:40.815Z,16.70
2018-12-05T16:42:09.587Z,15.03
2018-12-05T16:44:38.167Z,14.23
2018-12-05T16:47:06.786Z,18.00
2018-12-05T16:49:35.407Z,20.23
2018-12-05T16:52:04.064Z,16.30
2018-12-05T16:54:33.137Z,25.83
2018-12-05T16:57:01.856Z,20.67
2018-12-05T16:59:30.462Z,19.40
2018-12-05T17:01:59.066Z,17.53
2018-12-05T17:04:27.711Z,16.70
2018-12-05T17:06:56.373Z,17.87
2018-12-05T17:09:26.346Z,20.17
2018-12-05T17:11:55.316Z,17.97
2018-12-05T17:14:24.101Z,17.30
2018-12-05T17:16:52.899Z,18.67
2018-12-05T17:19:21.603Z,15.60
2018-12-05T17:21:50.278Z,15.90
2018-12-05T17:24:19.020Z,15.67
2018-12-05T17:26:47.674Z,16.43
2018-12-05T17:29:16.319Z,16.87
2018-12-05T17:31:45.248Z,18.00
2018-12-05T17:34:13.843Z,25.70
2018-12-05T17:36:42.505Z,16.30
2018-12-05T17:39:11.233Z,25.00
2018-12-05T17:41:40.088Z,19.23
2018-12-05T17:44:08.920Z,21.07
2018-12-05T17:46:37.853Z,13.70
2018-12-05T17:49:06.545Z,18.43
2018-12-05T17:51:35.225Z,21.27
2018-12-05T17:54:04.415Z,18.70
2018-12-05T17:56:33.005Z,15.00
2018-12-05T17:59:01.614Z,16.63
2018-12-05T18:01:30.332Z,18.10
2018-12-05T18:03:58.902Z,20.57
2018-12-05T18:06:27.495Z,18.23
2018-12-05T18:08:56.231Z,20.90
2018-12-05T18:11:24.855Z,20.23
2018-12-05T18:13:53.476Z,18.73
2018-12-05T18:16:22.157Z,22.90
2018-12-05T18:18:50.761Z,21.67
2018-12-05T18:21:19.787Z,23.20
2018-12-05T18:23:48.433Z,26.33
2018-12-05T18:26:17.002Z,28.37
2018-12-05T18:28:45.699Z,27.07
2018-12-05T18:31:14.317Z,20.60
2018-12-05T18:33:42.972Z,25.67
2018-12-05T18:36:11.806Z,23.17
2018-12-05T18:38:40.371Z,20.07
2018-12-05T18:41:08.961Z,17.87
2018-12-05T18:43:37.733Z,26.20
2018-12-05T18:46:06.379Z,21.40
2018-12-05T18:48:34.991Z,22.77
2018-12-05T18:51:03.774Z,22.10
2018-12-05T18:53:32.584Z,21.73
2018-12-05T18:56:01.175Z,20.37
2018-12-05T18:58:29.759Z,18.47
2018-12-05T19:00:58.673Z,18.90
2018-12-05T19:03:27.288Z,19.00
2018-12-05T19:05:55.858Z,19.50
2018-12-05T19:08:24.504Z,20.37
2018-12-05T19:10:53.100Z,22.53
2018-12-05T19:13:21.855Z,23.13
2018-12-05T19:15:50.501Z,18.00
2018-12-05T19:18:19.207Z,26.93
2018-12-05T19:20:47.812Z,21.50
2018-12-05T19:23:16.392Z,22.23
2018-12-05T19:25:45.020Z,21.07
2018-12-05T19:28:13.599Z,29.80
2018-12-05T19:30:42.309Z,22.40
2018-12-05T19:33:10.903Z,24.00
2018-12-05T19:35:39.529Z,25.57
2018-12-05T19:38:08.182Z,25.47
2018-12-05T19:40:36.792Z,24.37
2018-12-05T19:43:05.444Z,28.27
2018-12-05T19:45:33.997Z,26.37
2018-12-05T19:48:02.617Z,29.20
2018-12-05T19:50:31.211Z,29.20
2018-12-05T19:53:00.003Z,29.40
2018-12-05T19:55:28.703Z,22.60
2018-12-05T19:57:57.307Z,28.80
2018-12-05T20:00:26.932Z,29.40
2018-12-05T20:02:55.693Z,26.43
2018-12-05T20:05:24.300Z,25.23
2018-12-05T20:07:52.852Z,29.40
2018-12-05T20:10:21.524Z,26.00
2018-12-05T20:12:50.171Z,29.80
2018-12-05T20:15:18.786Z,23.47
2018-12-05T20:17:47.412Z,31.13
2018-12-05T20:20:15.987Z,28.43
2018-12-05T20:22:44.628Z,28.37
2018-12-05T20:25:13.240Z,27.80
2018-12-05T20:27:41.842Z,26.40
2018-12-05T20:30:10.597Z,26.57
2018-12-05T20:32:39.380Z,26.47
2018-12-05T20:35:08.144Z,23.50
2018-12-05T20:37:36.737Z,22.83
2018-12-05T20:40:05.857Z,22.30
2018-12-05T20:42:34.487Z,24.33
2018-12-05T20:45:03.371Z,30.60
2018-12-05T20:47:32.088Z,28.27
2018-12-05T20:50:00.795Z,28.20
2018-12-05T20:52:29.459Z,25.20
2018-12-05T20:54:58.243Z,27.60
2018-12-05T20:57:26.908Z,44.53
2018-12-05T20:59:55.586Z,31.70
2018-12-05T21:02:24.436Z,28.83
2018-12-05T21:04:53.034Z,25.27
2018-12-05T21:07:21.640Z,24.37
2018-12-05T21:09:50.351Z,23.03
2018-12-05T21:12:19.036Z,25.20
2018-12-05T21:14:47.804Z,23.27
2018-12-05T21:17:16.451Z,22.07
2018-12-05T21:19:45.072Z,22.43
2018-12-05T21:22:13.791Z,26.00
2018-12-05T21:24:42.460Z,23.70
2018-12-05T21:27:11.109Z,24.50
2018-12-05T21:29:39.721Z,22.70
2018-12-05T21:32:08.463Z,22.00
2018-12-05T21:34:37.125Z,27.20
2018-12-05T21:37:05.755Z,26.03
2018-12-05T21:39:34.340Z,28.87
2018-12-05T21:42:03.404Z,20.83
2018-12-05T21:44:32.004Z,22.47
2018-12-05T21:47:00.645Z,20.47
2018-12-05T21:49:29.303Z,19.20
2018-12-05T21:51:57.908Z,26.90
2018-12-05T21:54:26.534Z,22.70
2018-12-05T21:56:55.292Z,20.33
2018-12-05T21:59:23.888Z,24.20
2018-12-05T22:01:52.499Z,20.57
2018-12-05T22:04:21.141Z,23.27
2018-12-05T22:06:49.730Z,23.10
2018-12-05T22:09:18.370Z,24.20
2018-12-05T22:11:46.941Z,22.17
2018-12-05T22:14:15.670Z,19.50
2018-12-05T22:16:44.335Z,20.10
2018-12-05T22:19:13.179Z,21.57
2018-12-05T22:21:41.891Z,21.33
2018-12-05T22:24:10.586Z,21.77
2018-12-05T22:26:39.442Z,22.20
2018-12-05T22:29:08.126Z,23.30
2018-12-05T22:31:36.759Z,18.60
2018-12-05T22:34:05.585Z,20.00
2018-12-05T22:36:34.301Z,18.70
2018-12-05T22:39:03.021Z,21.33
2018-12-05T22:41:31.774Z,17.33
2018-12-05T22:44:00.472Z,19.10
2018-12-05T22:46:29.205Z,16.73
2018-12-05T22:48:57.960Z,17.17
2018-12-05T22:51:26.685Z,19.87
2018-12-05T22:53:55.490Z,21.33
2018-12-05T22:56:24.271Z,22.37
2018-12-05T22:58:52.987Z,20.43
2018-12-05T23:01:22.104Z,20.07
2018-12-05T23:03:50.938Z,17.00
2018-12-05T23:06:19.690Z,20.80
2018-12-05T23:08:48.432Z,18.47
2018-12-05T23:14:38.437Z,20.33
2018-12-05T23:17:07.176Z,17.77
2018-12-05T23:19:36.094Z,20.70
2018-12-05T23:22:04.871Z,20.23
2018-12-05T23:24:33.599Z,20.90
2018-12-05T23:27:02.435Z,19.80
2018-12-05T23:29:31.169Z,21.23
2018-12-05T23:31:59.795Z,19.00
2018-12-05T23:34:28.395Z,21.10
2018-12-05T23:36:57.057Z,21.17
2018-12-05T23:39:25.665Z,28.60
2018-12-05T23:41:54.239Z,22.00
2018-12-05T23:44:22.848Z,20.70
2018-12-05T23:46:51.418Z,22.40
2018-12-05T23:49:20.112Z,25.70
2018-12-05T23:51:48.691Z,18.43
2018-12-05T23:54:17.345Z,21.77
2018-12-05T23:56:45.902Z,21.40
2018-12-05T23:59:14.500Z,25.27
